Terminal Aerodrome Forecast
Issued by NWS

Home | Current Version | Previous Version | Text Only | Print | Product List | Glossary On
Versions: 1 2 3 4 5 6 7 8 9 10 11 12 13 14 15 16 17 18 19 20 21 22 23 24 25 26
000
FTUS44 KSJT 271100
TAFJCT
TAF
KJCT 271121Z 2712/2812 VRB04KT P6SM SCT100
     FM271600 28012KT P6SM SCT250
     FM280000 36013KT P6SM SCT250
     FM280800 36014KT P6SM BKN025=

USA.gov is the U.S. government's official web portal to all federal, state and local government web resources and services.